KFDK/FDK METAR and TAF weather

Enter ICAO airport designator
Station Type Date Time Source
KFDK METAR 2020/01/29 12:47 UTC NOAA

KFDK 291247Z 35004KT 10SM OVC034 03/M04 A3013


Station Type Date Time Source
KFDK Decoded METAR 2020/01/29 12:47 UTC NOAA

Frederick, Frederick Municipal Airport, MD, United States (KFDK) 39-25-03N 077-22-28W
Jan 29, 2020 - 07:47 AM EST / 2020.01.29 1247 UTC
Wind: from the N (350 degrees) at 5 MPH (4 KT):0
Visibility: 10 mile(s):0
Sky conditions: overcast
Temperature: 37 F (3 C)
Dew Point: 24 F (-4 C)
Relative Humidity: 59%
Pressure (altimeter): 30.13 in. Hg (1020 hPa)
ob: KFDK 291247Z 35004KT 10SM OVC034 03/M04 A3013
cycle: 13

Station Type Date Time Source
KFDK TAF UTC NOAA

Error!

Example: see airport list